Time;durP1;ratioP1;P1;durP2;ratioP2;P2;SDS_P1;SDS_P2;PMS_P1;PMS_P2;Temp;Humidity;BMP_temperature;BMP_pressure;BME280_temperature;BME280_humidity;BME280_pressure;Samples;Min_cycle;Max_cycle;Signal;HPM_P1;HPM_P2
2021/10/07 00:01:12;;;;;;;1.85;1.60;;;;;;;13.58;69.22;101561.63;5011376;28;20026;-42
2021/10/07 00:03:37;;;;;;;2.17;1.80;;;;;;;13.58;69.33;101567.78;5011690;28;20037;-42
2021/10/07 00:06:03;;;;;;;2.35;2.15;;;;;;;13.58;69.17;101562.47;5011513;28;20029;-42
2021/10/07 00:08:28;;;;;;;1.60;1.50;;;;;;;13.57;69.33;101565.16;5008842;28;20450;-42
2021/10/07 00:10:54;;;;;;;2.65;1.63;;;;;;;13.56;69.00;101571.34;5011468;28;20073;-42
2021/10/07 00:13:19;;;;;;;1.85;1.75;;;;;;;13.56;69.17;101569.56;5011181;28;20025;-42
2021/10/07 00:15:44;;;;;;;2.75;1.80;;;;;;;13.56;69.21;101568.69;5010919;28;20446;-42
2021/10/07 00:18:09;;;;;;;1.60;1.50;;;;;;;13.56;69.21;101571.34;5010907;28;20443;-42
2021/10/07 00:20:35;;;;;;;1.77;1.67;;;;;;;13.55;69.28;101577.53;5010955;28;20057;-42
2021/10/07 00:23:00;;;;;;;2.75;2.00;;;;;;;13.55;69.28;101572.22;5011164;28;20030;-42
2021/10/07 00:25:25;;;;;;;2.00;1.90;;;;;;;13.55;69.05;101580.19;5010795;28;20034;-42
2021/10/07 00:27:53;;;;;;;1.77;1.67;;;;;;;13.53;69.11;101580.19;5010839;28;20426;-42
2021/10/07 00:30:19;;;;;;;1.70;1.60;;;;;;;13.54;68.93;101586.38;5011208;28;20022;-42
2021/10/07 00:32:51;;;;;;;2.22;1.67;;;;;;;13.53;69.15;101582.84;5010254;28;20030;-42
2021/10/07 00:35:39;;;;;;;2.28;1.85;;;;;;;13.51;69.38;101582.00;5010920;28;20383;-42
2021/10/07 00:40:49;;;;;;;2.00;1.85;;;;;;;13.50;69.14;101593.47;5009187;28;20032;-42
2021/10/07 00:43:14;;;;;;;1.90;1.70;;;;;;;13.51;69.26;101597.00;5010846;28;20029;-42
2021/10/07 00:45:39;;;;;;;2.10;2.00;;;;;;;13.50;68.92;101595.25;5010906;28;20427;-42
2021/10/07 00:48:05;;;;;;;2.42;2.10;;;;;;;13.49;69.15;101597.00;5007150;28;20057;-42
2021/10/07 00:50:30;;;;;;;1.67;1.58;;;;;;;13.50;68.98;101603.19;5010530;28;20036;-42
2021/10/07 00:52:56;;;;;;;1.92;1.70;;;;;;;13.47;69.04;101602.28;5010875;28;20025;-42
2021/10/07 00:55:21;;;;;;;1.70;1.60;;;;;;;13.47;69.17;101610.22;5010935;28;20030;-42
2021/10/07 00:57:46;;;;;;;2.83;2.00;;;;;;;13.47;69.21;101610.22;5008565;28;20041;-42
2021/10/07 01:00:12;;;;;;;2.97;2.00;;;;;;;13.47;68.91;101612.00;5009303;28;20403;-41
2021/10/07 01:02:38;;;;;;;2.05;1.70;;;;;;;13.46;69.17;101611.13;5007438;28;20025;-42
2021/10/07 01:05:04;;;;;;;2.20;2.00;;;;;;;13.45;68.83;101609.38;5010604;28;20113;-42
2021/10/07 01:07:29;;;;;;;2.25;1.70;;;;;;;13.44;69.08;101620.84;5010172;28;20112;-42
2021/10/07 01:09:55;;;;;;;2.30;1.70;;;;;;;13.45;69.02;101624.38;5009414;28;20101;-42
2021/10/07 01:12:20;;;;;;;1.50;1.40;;;;;;;13.43;68.99;101613.78;5010305;28;20073;-42
2021/10/07 01:14:58;;;;;;;2.28;1.60;;;;;;;13.44;69.03;101615.53;5009999;28;20030;-42
2021/10/07 01:17:26;;;;;;;2.10;1.70;;;;;;;13.41;69.02;101610.25;4990189;28;20126;-42
2021/10/07 01:19:53;;;;;;;1.98;1.88;;;;;;;13.42;68.96;101614.69;5010410;28;20014;-42
2021/10/07 01:22:21;;;;;;;2.40;2.20;;;;;;;13.42;68.91;101613.81;4990177;28;20479;-43
2021/10/07 01:24:47;;;;;;;1.83;1.70;;;;;;;13.42;68.94;101620.00;5009476;28;20030;-42
2021/10/07 01:27:12;;;;;;;2.40;1.63;;;;;;;13.41;68.90;101610.25;5009954;28;20036;-42
2021/10/07 01:29:39;;;;;;;2.22;2.03;;;;;;;13.40;68.78;101613.81;5009727;28;20105;-42
2021/10/07 01:32:05;;;;;;;1.92;1.75;;;;;;;13.40;68.76;101618.25;5010380;28;20022;-42
2021/10/07 01:34:31;;;;;;;1.60;1.50;;;;;;;13.39;68.93;101617.34;5010105;28;20459;-42
2021/10/07 01:36:56;;;;;;;2.28;2.00;;;;;;;13.38;68.85;101612.94;5010105;28;20026;-42
2021/10/07 01:39:22;;;;;;;1.88;1.77;;;;;;;13.38;68.75;101626.19;5010020;28;20398;-42
2021/10/07 01:41:47;;;;;;;4.50;1.98;;;;;;;13.39;68.74;101629.72;5010486;28;20034;-42
2021/10/07 01:44:14;;;;;;;3.55;1.98;;;;;;;13.38;68.93;101627.97;5008063;28;20026;-42
2021/10/07 01:46:39;;;;;;;1.80;1.50;;;;;;;13.37;68.79;101627.06;5010103;28;20048;-42
2021/10/07 01:49:07;;;;;;;1.83;1.67;;;;;;;13.36;68.77;101625.31;5009786;28;20034;-42
2021/10/07 01:51:36;;;;;;;1.85;1.70;;;;;;;13.35;68.68;101629.72;5008577;28;20034;-43
2021/10/07 01:54:02;;;;;;;3.05;2.30;;;;;;;13.35;68.97;101634.16;5008826;28;20041;-42
2021/10/07 01:56:28;;;;;;;1.88;1.77;;;;;;;13.34;68.70;101640.34;5009949;28;20021;-42
2021/10/07 01:58:53;;;;;;;2.38;2.17;;;;;;;13.33;68.80;101639.47;5009818;28;20032;-42
2021/10/07 02:01:19;;;;;;;2.38;2.17;;;;;;;13.34;68.92;101632.41;5006289;28;20507;-42
2021/10/07 02:03:44;;;;;;;2.35;2.03;;;;;;;13.33;68.85;101634.16;5010058;28;20061;-42
2021/10/07 02:06:09;;;;;;;4.05;2.13;;;;;;;13.33;68.75;101638.56;5007565;28;20030;-42
2021/10/07 02:08:34;;;;;;;2.47;2.22;;;;;;;13.31;68.73;101638.56;5006382;28;20447;-42
2021/10/07 02:11:00;;;;;;;2.47;2.28;;;;;;;13.31;68.82;101643.00;5009723;28;20037;-42
2021/10/07 02:13:26;;;;;;;2.35;2.20;;;;;;;13.30;68.78;101635.94;5013678;28;20112;-42
2021/10/07 02:15:51;;;;;;;2.50;2.30;;;;;;;13.30;69.02;101635.94;5012251;28;20114;-42
2021/10/07 02:18:17;;;;;;;2.75;2.55;;;;;;;13.30;68.70;101641.22;5013163;28;20033;-42
2021/10/07 02:20:43;;;;;;;2.78;2.58;;;;;;;13.28;68.68;101643.91;5012449;28;20030;-42
2021/10/07 02:23:08;;;;;;;2.70;2.35;;;;;;;13.28;68.60;101649.22;5012816;28;20084;-42
2021/10/07 02:25:34;;;;;;;2.35;2.10;;;;;;;13.26;68.63;101642.13;5013567;28;20034;-42
2021/10/07 02:27:59;;;;;;;2.22;2.05;;;;;;;13.27;68.61;101651.88;5012726;28;20026;-42
2021/10/07 02:30:24;;;;;;;3.20;2.90;;;;;;;13.27;68.85;101658.03;5013212;28;20037;-42
2021/10/07 02:32:50;;;;;;;2.58;2.38;;;;;;;13.25;68.87;101649.22;5011990;28;20034;-42
2021/10/07 02:35:16;;;;;;;3.58;2.40;;;;;;;13.26;68.71;101658.03;5012973;28;20064;-42
2021/10/07 02:37:45;;;;;;;3.08;2.63;;;;;;;13.25;68.85;101651.88;5009767;28;20030;-42
2021/10/07 02:40:12;;;;;;;2.65;2.40;;;;;;;13.24;68.79;101660.69;5010977;28;20024;-43
2021/10/07 02:42:38;;;;;;;2.85;2.53;;;;;;;13.24;68.59;101663.34;5012862;28;20052;-42
2021/10/07 02:45:05;;;;;;;2.75;2.50;;;;;;;13.24;68.74;101678.38;5010636;28;20388;-42
2021/10/07 02:47:30;;;;;;;3.83;2.63;;;;;;;13.23;68.70;101666.88;5027662;28;20103;-42
2021/10/07 02:49:56;;;;;;;3.55;2.65;;;;;;;13.24;68.56;101673.06;5008540;28;20420;-42
2021/10/07 02:52:21;;;;;;;2.40;2.20;;;;;;;13.21;68.73;101677.47;5011850;28;20414;-42
2021/10/07 02:54:46;;;;;;;3.08;2.40;;;;;;;13.21;68.56;101680.13;5012907;28;20083;-42
2021/10/07 02:57:12;;;;;;;2.95;2.75;;;;;;;13.20;68.75;101688.97;5012694;28;20070;-42
2021/10/07 02:59:37;;;;;;;2.90;2.70;;;;;;;13.20;68.72;101688.06;5010812;28;20034;-42
2021/10/07 03:02:02;;;;;;;3.78;2.78;;;;;;;13.18;68.71;101695.16;5011612;28;20563;-42
2021/10/07 03:04:28;;;;;;;3.63;2.80;;;;;;;13.18;68.73;101693.38;5012049;28;20041;-42
2021/10/07 03:06:53;;;;;;;2.72;2.50;;;;;;;13.18;68.64;101695.16;5012333;28;20037;-42
2021/10/07 03:09:18;;;;;;;3.33;2.70;;;;;;;13.14;68.74;101691.63;5008938;28;20033;-42
2021/10/07 03:11:43;;;;;;;2.78;2.33;;;;;;;13.17;68.60;101693.41;5010938;28;20399;-42
2021/10/07 03:14:09;;;;;;;2.85;2.63;;;;;;;13.16;68.72;101696.94;5011957;28;20033;-42
2021/10/07 03:16:34;;;;;;;3.25;2.78;;;;;;;13.15;68.54;101693.41;5012563;28;20088;-42
2021/10/07 03:18:59;;;;;;;2.83;2.53;;;;;;;13.14;68.62;101694.28;5011708;28;20069;-42
2021/10/07 03:21:25;;;;;;;3.17;2.47;;;;;;;13.13;68.65;101696.94;5008325;28;20030;-42
2021/10/07 03:23:50;;;;;;;3.33;3.03;;;;;;;13.14;68.65;101702.22;5009407;28;20026;-42
2021/10/07 03:26:15;;;;;;;3.65;2.22;;;;;;;13.13;68.69;101708.41;5011382;28;20030;-42
2021/10/07 03:28:41;;;;;;;2.92;2.72;;;;;;;13.12;68.60;101711.06;5009790;28;20041;-42
2021/10/07 03:31:06;;;;;;;3.00;2.70;;;;;;;13.12;68.63;101716.38;5011373;28;20022;-42
2021/10/07 03:33:31;;;;;;;3.33;2.72;;;;;;;13.11;68.58;101723.44;5012057;28;20092;-42
2021/10/07 03:35:57;;;;;;;2.85;2.60;;;;;;;13.10;68.63;101724.31;5010788;28;20037;-42
2021/10/07 03:38:25;;;;;;;3.55;2.75;;;;;;;13.09;68.38;101725.22;5008786;28;20072;-42
2021/10/07 03:40:50;;;;;;;2.80;2.55;;;;;;;13.09;68.33;101741.09;5010720;28;20109;-42
2021/10/07 03:43:16;;;;;;;3.15;2.53;;;;;;;13.08;68.51;101734.03;5010478;28;20617;-42
2021/10/07 03:45:41;;;;;;;2.65;2.45;;;;;;;13.07;68.25;101757.00;5010459;28;20029;-42
2021/10/07 03:48:06;;;;;;;3.50;2.78;;;;;;;13.08;68.32;101749.94;5011386;28;20033;-42
2021/10/07 03:50:32;;;;;;;3.28;3.00;;;;;;;13.07;68.52;101753.44;5007454;28;20029;-42
2021/10/07 03:52:57;;;;;;;3.03;2.72;;;;;;;13.06;68.33;101755.22;5011340;28;20388;-42
2021/10/07 03:55:22;;;;;;;3.25;2.90;;;;;;;13.05;68.49;101757.88;5010209;28;20030;-42
2021/10/07 03:57:47;;;;;;;3.10;2.80;;;;;;;13.05;68.27;101758.78;5011616;28;20030;-42
2021/10/07 04:00:13;;;;;;;3.67;2.97;;;;;;;13.05;68.11;101763.19;5009313;28;20030;-42
2021/10/07 04:02:38;;;;;;;4.18;2.72;;;;;;;13.04;68.31;101761.44;5003033;28;20061;-42
2021/10/07 04:05:04;;;;;;;3.00;2.70;;;;;;;13.03;68.36;101764.94;5006127;28;20030;-42
2021/10/07 04:07:29;;;;;;;3.47;3.17;;;;;;;13.02;68.42;101763.19;5011505;28;20476;-42
2021/10/07 04:09:55;;;;;;;3.10;2.90;;;;;;;13.01;68.44;101766.72;5008259;28;20049;-42
2021/10/07 04:12:20;;;;;;;3.25;2.95;;;;;;;13.00;68.50;101765.81;5010837;28;20498;-42
2021/10/07 04:14:46;;;;;;;4.00;3.00;;;;;;;13.01;68.29;101780.81;5009522;28;20030;-42
2021/10/07 04:17:11;;;;;;;4.28;3.22;;;;;;;12.99;68.22;101769.38;5011655;28;20025;-42
2021/10/07 04:19:36;;;;;;;3.22;2.88;;;;;;;12.99;68.16;101779.06;5005078;28;20029;-42
2021/10/07 04:22:02;;;;;;;3.20;2.95;;;;;;;12.98;68.23;101772.91;5010311;28;20033;-42
2021/10/07 04:24:27;;;;;;;2.85;2.65;;;;;;;12.98;68.36;101777.31;5007653;28;20018;-42
2021/10/07 04:26:53;;;;;;;2.97;2.78;;;;;;;12.98;68.19;101782.59;5012576;28;20029;-42
2021/10/07 04:29:18;;;;;;;3.80;3.08;;;;;;;12.96;68.13;101791.44;5011123;28;20025;-42
2021/10/07 04:31:43;;;;;;;2.88;2.67;;;;;;;12.95;68.25;101788.78;5010879;28;20496;-42
2021/10/07 04:34:09;;;;;;;4.15;3.22;;;;;;;12.94;68.37;101795.84;5009594;28;20482;-42
2021/10/07 04:36:34;;;;;;;3.08;2.42;;;;;;;12.92;68.26;101794.97;5010564;28;20032;-42
2021/10/07 04:39:00;;;;;;;3.30;3.00;;;;;;;12.94;68.20;101797.63;5010606;28;20042;-42
2021/10/07 04:41:25;;;;;;;3.33;3.03;;;;;;;12.93;68.11;101799.38;5010515;28;20044;-42
2021/10/07 04:43:51;;;;;;;3.42;3.13;;;;;;;12.93;68.04;101811.72;5010591;28;20022;-42
2021/10/07 04:46:18;;;;;;;3.42;3.13;;;;;;;12.90;68.23;101799.38;5010057;28;20053;-42
2021/10/07 04:48:44;;;;;;;3.58;3.10;;;;;;;12.91;68.04;101800.28;5009588;28;20030;-43
2021/10/07 04:51:09;;;;;;;3.42;3.13;;;;;;;12.91;68.10;101811.72;5011139;28;20047;-42
2021/10/07 04:53:35;;;;;;;3.15;2.60;;;;;;;12.90;68.30;101817.91;5010107;28;20022;-42
2021/10/07 04:56:00;;;;;;;3.05;2.75;;;;;;;12.89;68.25;101817.91;5008785;28;21104;-42
2021/10/07 04:58:25;;;;;;;2.95;2.75;;;;;;;12.89;68.02;101831.16;5008950;28;20028;-42
2021/10/07 05:00:51;;;;;;;3.17;2.88;;;;;;;12.88;68.08;101827.63;5007085;28;20026;-42
2021/10/07 05:03:17;;;;;;;3.45;2.75;;;;;;;12.87;68.02;101836.44;5009573;28;20029;-46
2021/10/07 05:05:43;;;;;;;3.75;2.95;;;;;;;12.87;68.07;101839.09;5009544;28;20192;-42
2021/10/07 05:08:08;;;;;;;3.85;3.00;;;;;;;12.86;67.86;101841.75;5008930;28;20509;-42
2021/10/07 05:10:33;;;;;;;3.50;3.20;;;;;;;12.85;68.14;101846.16;5009829;28;20060;-42
2021/10/07 05:12:59;;;;;;;2.90;2.70;;;;;;;12.83;67.99;101856.75;5007282;28;20041;-42
2021/10/07 05:15:25;;;;;;;4.28;2.97;;;;;;;12.84;67.92;101855.00;5010271;28;20044;-42
2021/10/07 05:17:51;;;;;;;2.83;2.55;;;;;;;12.83;68.36;101856.75;5009539;28;20033;-42
2021/10/07 05:20:16;;;;;;;3.78;3.17;;;;;;;12.82;68.31;101862.94;5007044;28;20557;-42
2021/10/07 05:22:42;;;;;;;3.20;2.90;;;;;;;12.82;68.13;101877.94;5009303;28;20038;-42
2021/10/07 05:25:07;;;;;;;3.28;2.97;;;;;;;12.82;68.04;101877.94;5010338;28;20029;-42
2021/10/07 05:27:32;;;;;;;3.80;3.40;;;;;;;12.80;68.08;101879.69;5009845;28;20022;-42
2021/10/07 05:29:58;;;;;;;3.35;3.05;;;;;;;12.79;68.04;101883.22;5010455;28;20033;-42
2021/10/07 05:32:23;;;;;;;3.97;3.53;;;;;;;12.78;68.06;101877.06;5010519;28;20033;-42
2021/10/07 05:34:48;;;;;;;3.20;2.83;;;;;;;12.78;67.72;101873.53;5010270;28;20034;-42
2021/10/07 05:37:14;;;;;;;3.28;2.97;;;;;;;12.77;67.88;101866.47;5010432;28;20038;-42
2021/10/07 05:39:40;;;;;;;3.25;2.95;;;;;;;12.76;67.96;101877.91;5009437;28;20080;-42
2021/10/07 05:42:06;;;;;;;3.05;2.78;;;;;;;12.77;67.89;101874.41;5009085;28;20033;-42
2021/10/07 05:44:31;;;;;;;3.22;2.92;;;;;;;12.74;67.88;101877.91;5010552;28;20018;-43
2021/10/07 05:46:57;;;;;;;4.03;3.25;;;;;;;12.74;68.06;101875.25;5011716;28;20024;-42
2021/10/07 05:49:22;;;;;;;3.63;3.05;;;;;;;12.74;67.93;101875.25;5013579;28;20415;-42
2021/10/07 05:51:48;;;;;;;3.35;2.67;;;;;;;12.74;67.88;101874.41;5014249;28;20072;-42
2021/10/07 05:54:13;;;;;;;3.33;2.83;;;;;;;12.74;67.95;101879.69;5013658;28;20088;-42
2021/10/07 05:56:38;;;;;;;3.40;3.08;;;;;;;12.72;68.29;101876.16;5014044;28;20064;-42
2021/10/07 05:59:04;;;;;;;3.22;2.92;;;;;;;12.72;68.03;101884.09;5013482;28;20033;-42
2021/10/07 06:01:29;;;;;;;3.53;3.17;;;;;;;12.72;68.01;101878.78;5010553;28;20486;-42
2021/10/07 06:03:54;;;;;;;4.25;3.15;;;;;;;12.70;68.16;101879.69;5013932;28;20026;-42
2021/10/07 06:06:20;;;;;;;3.33;3.03;;;;;;;12.69;67.80;101879.69;5012626;28;20044;-42
2021/10/07 06:08:46;;;;;;;3.58;3.28;;;;;;;12.68;67.82;101881.44;5011867;28;20026;-42
2021/10/07 06:11:11;;;;;;;5.70;2.65;;;;;;;12.68;68.04;101894.66;5013896;28;20026;-42
2021/10/07 06:13:36;;;;;;;2.88;2.67;;;;;;;12.67;67.83;101889.41;5013913;28;20034;-42
2021/10/07 06:16:02;;;;;;;3.35;2.90;;;;;;;12.66;67.92;101899.09;5013505;28;20053;-42
2021/10/07 06:18:27;;;;;;;4.55;3.10;;;;;;;12.66;67.96;101893.81;5012645;28;20065;-42
2021/10/07 06:20:53;;;;;;;3.55;3.05;;;;;;;12.66;67.83;101907.03;5013870;28;20025;-42
2021/10/07 06:23:18;;;;;;;3.65;2.90;;;;;;;12.66;68.10;101906.13;5010125;28;20088;-42
2021/10/07 06:25:43;;;;;;;5.15;3.45;;;;;;;12.65;67.79;101899.97;5013363;28;20529;-42
2021/10/07 06:28:09;;;;;;;4.20;2.85;;;;;;;12.63;68.03;101907.03;5009768;28;20022;-42
2021/10/07 06:30:35;;;;;;;3.28;3.00;;;;;;;12.64;67.95;101907.91;5012428;28;20013;-42
2021/10/07 06:33:00;;;;;;;3.20;2.78;;;;;;;12.63;67.77;101917.59;5010247;28;20022;-42
2021/10/07 06:35:26;;;;;;;3.40;2.95;;;;;;;12.63;67.79;101916.72;5013174;28;20499;-42
2021/10/07 06:37:52;;;;;;;3.40;3.10;;;;;;;12.61;67.94;101916.75;5009693;28;20022;-42
2021/10/07 06:40:17;;;;;;;3.83;3.42;;;;;;;12.62;67.50;101925.53;5013027;28;20583;-42
2021/10/07 06:42:42;;;;;;;2.83;2.60;;;;;;;12.61;67.97;101937.00;5013040;28;20026;-42
2021/10/07 06:45:09;;;;;;;3.38;3.08;;;;;;;12.61;67.93;101932.63;5013077;28;20037;-42
2021/10/07 06:47:34;;;;;;;4.30;3.42;;;;;;;12.59;67.95;101934.34;5012913;28;20018;-42
2021/10/07 06:50:00;;;;;;;3.00;2.75;;;;;;;12.59;68.11;101942.31;5012412;28;20033;-42
2021/10/07 06:52:26;;;;;;;2.85;2.65;;;;;;;12.60;67.87;101946.69;5012605;28;20036;-42
2021/10/07 06:54:51;;;;;;;3.88;3.30;;;;;;;12.59;68.05;101955.53;5013031;28;20018;-42
2021/10/07 06:57:16;;;;;;;3.30;3.00;;;;;;;12.57;67.93;101952.88;5012580;28;20388;-42
2021/10/07 06:59:42;;;;;;;3.83;3.13;;;;;;;12.57;68.00;101963.47;5011863;28;20029;-42
2021/10/07 07:02:07;;;;;;;3.25;3.03;;;;;;;12.58;67.79;101959.06;5012951;28;20025;-42
2021/10/07 07:04:32;;;;;;;4.28;3.53;;;;;;;12.59;68.04;101960.81;5012414;28;20030;-42
2021/10/07 07:06:58;;;;;;;3.30;3.00;;;;;;;12.58;67.85;101959.06;5012613;28;20022;-42
2021/10/07 07:09:23;;;;;;;3.17;2.95;;;;;;;12.57;68.13;101966.13;5012122;28;20120;-42
2021/10/07 07:11:48;;;;;;;3.30;2.92;;;;;;;12.55;67.95;101961.69;5012562;28;20018;-42
2021/10/07 07:14:14;;;;;;;3.40;3.10;;;;;;;12.56;67.93;101968.75;5008778;28;20109;-42
2021/10/07 07:16:39;;;;;;;3.97;3.08;;;;;;;12.55;68.09;101967.00;5012692;28;20030;-42
2021/10/07 07:19:04;;;;;;;3.60;3.30;;;;;;;12.55;68.18;101977.56;5008694;28;20040;-42
2021/10/07 07:21:33;;;;;;;3.75;3.17;;;;;;;12.54;68.08;101967.88;5012444;28;20018;-41
2021/10/07 07:24:00;;;;;;;3.60;3.30;;;;;;;12.53;67.97;101971.38;5012595;28;20079;-41
2021/10/07 07:26:26;;;;;;;3.95;3.40;;;;;;;12.53;68.01;101972.28;5012271;28;20029;-43
2021/10/07 07:28:52;;;;;;;3.40;3.10;;;;;;;12.54;68.18;101978.47;5010657;28;20052;-42
2021/10/07 07:31:18;;;;;;;3.08;2.78;;;;;;;12.53;68.07;101980.22;5010671;28;20411;-42
2021/10/07 07:33:46;;;;;;;3.22;2.92;;;;;;;12.53;68.14;101974.03;5010455;28;20021;-42
2021/10/07 07:36:11;;;;;;;2.88;2.67;;;;;;;12.54;67.57;101981.97;5009611;28;20036;-42
2021/10/07 07:38:37;;;;;;;3.78;3.40;;;;;;;12.54;67.87;101983.75;5010668;28;20021;-42
2021/10/07 07:41:02;;;;;;;3.30;3.00;;;;;;;12.52;67.87;101988.16;5010929;28;20037;-42
2021/10/07 07:43:27;;;;;;;3.83;2.92;;;;;;;12.52;68.10;101978.47;5008623;28;20483;-42
2021/10/07 07:45:53;;;;;;;3.83;3.45;;;;;;;12.54;67.88;101983.75;5009720;28;20030;-42
2021/10/07 07:48:19;;;;;;;3.35;3.08;;;;;;;12.52;68.07;101993.44;5011347;28;20041;-42
2021/10/07 07:50:44;;;;;;;3.38;3.08;;;;;;;12.52;68.08;101996.97;5011598;28;20372;-42
2021/10/07 07:53:12;;;;;;;3.60;3.30;;;;;;;12.53;67.93;102003.13;5011791;28;20036;-42
2021/10/07 07:55:38;;;;;;;3.20;2.92;;;;;;;12.52;68.32;102006.66;5011368;28;20032;-42
2021/10/07 07:58:03;;;;;;;4.75;3.05;;;;;;;12.51;68.12;102004.91;5011477;28;20030;-41
2021/10/07 08:00:29;;;;;;;3.30;3.00;;;;;;;12.51;68.13;101999.63;5011543;28;20495;-42
2021/10/07 08:02:55;;;;;;;3.67;3.38;;;;;;;12.52;68.01;102006.66;5011591;28;20033;-43
2021/10/07 08:05:20;;;;;;;3.33;2.95;;;;;;;12.52;68.19;102007.56;4992929;28;20029;-42
2021/10/07 08:07:45;;;;;;;3.63;2.80;;;;;;;12.52;68.08;102017.25;5011437;28;20137;-42
2021/10/07 08:10:12;;;;;;;3.22;3.00;;;;;;;12.51;68.28;102010.19;5010773;28;20471;-42
2021/10/07 08:12:37;;;;;;;3.47;3.00;;;;;;;12.50;68.45;102013.72;5011557;28;20018;-42
2021/10/07 08:15:06;;;;;;;4.07;3.67;;;;;;;12.49;68.21;102018.13;5026622;28;20080;-42
2021/10/07 08:17:31;;;;;;;4.18;3.72;;;;;;;12.49;68.19;102018.13;5007935;28;20029;-41
2021/10/07 08:19:56;;;;;;;3.50;3.20;;;;;;;12.51;68.07;102019.00;5011259;28;20018;-42
2021/10/07 08:22:23;;;;;;;4.25;3.63;;;;;;;12.50;68.32;102019.03;5011413;28;20038;-42
2021/10/07 08:24:48;;;;;;;4.32;3.45;;;;;;;12.50;68.02;102019.03;5010678;28;20407;-42
2021/10/07 08:27:15;;;;;;;3.78;3.47;;;;;;;12.50;68.25;102019.03;5011257;28;20018;-42
2021/10/07 08:29:41;;;;;;;3.63;3.33;;;;;;;12.51;68.27;102032.25;5010743;28;20026;-42
2021/10/07 08:32:07;;;;;;;3.65;3.28;;;;;;;12.50;68.13;102030.47;5011224;28;20537;-42
2021/10/07 08:34:32;;;;;;;4.50;3.58;;;;;;;12.50;68.03;102032.25;5010677;28;20125;-42
2021/10/07 08:36:58;;;;;;;4.07;3.22;;;;;;;12.50;68.42;102029.63;5011262;28;20022;-42
2021/10/07 08:39:23;;;;;;;3.70;2.88;;;;;;;12.48;68.41;102028.69;5010299;28;20079;-42
2021/10/07 08:41:49;;;;;;;3.53;2.83;;;;;;;12.49;68.36;102033.13;5011096;28;20026;-42
2021/10/07 08:44:19;;;;;;;4.20;3.08;;;;;;;12.48;68.37;102026.97;5011056;28;20041;-42
2021/10/07 08:46:49;;;;;;;3.20;2.97;;;;;;;12.49;68.46;102030.47;5010995;28;20033;-42
2021/10/07 08:49:17;;;;;;;3.80;3.25;;;;;;;12.50;68.38;102040.19;5010109;28;20057;-42
2021/10/07 08:51:43;;;;;;;3.20;2.90;;;;;;;12.48;68.27;102034.00;5008782;28;20075;-42
2021/10/07 08:54:08;;;;;;;3.78;3.00;;;;;;;12.48;68.38;102041.94;5010949;28;20117;-42
2021/10/07 08:56:35;;;;;;;3.85;3.45;;;;;;;12.47;68.43;102043.69;5010602;28;20042;-42
2021/10/07 08:59:01;;;;;;;3.25;2.95;;;;;;;12.45;68.22;102030.44;5010284;28;20507;-42
2021/10/07 09:01:45;;;;;;;3.67;3.38;;;;;;;12.47;68.46;102043.69;5010696;28;20033;-42
2021/10/07 09:04:30;;;;;;;3.63;2.85;;;;;;;12.47;68.23;102051.63;5008180;28;21480;-42
2021/10/07 09:07:05;;;;;;;3.20;2.90;;;;;;;12.47;68.56;102045.47;5010032;28;20057;-42
2021/10/07 09:09:32;;;;;;;3.17;2.88;;;;;;;12.47;68.43;102040.19;5006614;28;20488;-42
2021/10/07 09:11:59;;;;;;;3.08;2.72;;;;;;;12.45;68.41;102048.97;5010544;28;20038;-42
2021/10/07 09:14:28;;;;;;;3.35;3.00;;;;;;;12.45;68.55;102048.97;5010465;28;20429;-42
2021/10/07 09:16:55;;;;;;;3.30;2.90;;;;;;;12.43;68.61;102040.16;5009088;28;20022;-42
2021/10/07 09:19:32;;;;;;;2.90;2.58;;;;;;;12.44;68.48;102044.56;5010377;28;20033;-42
2021/10/07 09:22:11;;;;;;;3.05;2.75;;;;;;;12.45;68.31;102041.03;5011827;28;20033;-42
2021/10/07 09:24:40;;;;;;;3.03;2.83;;;;;;;12.44;68.65;102044.56;5013199;28;20581;-42
2021/10/07 09:27:10;;;;;;;2.80;2.60;;;;;;;12.44;68.31;102036.63;5014579;28;20056;-42
2021/10/07 09:29:48;;;;;;;3.13;2.83;;;;;;;12.44;68.46;102035.75;5013672;28;20028;-42
2021/10/07 09:32:14;;;;;;;2.55;2.35;;;;;;;12.42;68.65;102041.03;5011427;28;20022;-42
2021/10/07 09:34:41;;;;;;;3.13;2.83;;;;;;;12.43;68.41;102045.44;5014418;28;20030;-42
2021/10/07 09:37:17;;;;;;;2.40;2.20;;;;;;;12.44;68.36;102030.47;5014302;28;20025;-42
2021/10/07 09:39:51;;;;;;;2.75;2.55;;;;;;;12.43;68.66;102042.81;5011087;28;20056;-42
2021/10/07 09:42:23;;;;;;;3.80;2.28;;;;;;;12.44;68.69;102041.06;5012475;28;20022;-42
2021/10/07 09:44:59;;;;;;;2.90;2.30;;;;;;;12.44;68.76;102033.13;5011701;28;20442;-42
2021/10/07 09:47:32;;;;;;;2.85;2.65;;;;;;;12.43;68.65;102040.16;5013999;28;20037;-42
2021/10/07 09:50:09;;;;;;;2.72;2.53;;;;;;;12.43;68.75;102036.59;5012533;28;20081;-42
2021/10/07 09:52:36;;;;;;;2.58;2.38;;;;;;;12.41;68.80;102041.88;5013933;28;20021;-42
2021/10/07 09:55:10;;;;;;;3.10;2.53;;;;;;;12.42;68.43;102038.41;5013796;28;20022;-42
2021/10/07 09:57:50;;;;;;;3.22;2.30;;;;;;;12.43;68.47;102040.16;5013671;28;20044;-42
2021/10/07 10:00:17;;;;;;;3.28;2.60;;;;;;;12.42;68.85;102038.41;5012617;28;20391;-42
2021/10/07 10:02:42;;;;;;;2.33;2.00;;;;;;;12.41;68.76;102039.25;5016425;28;20021;-42
2021/10/07 10:05:09;;;;;;;2.83;2.63;;;;;;;12.42;68.87;102033.09;4994149;28;20018;-42
2021/10/07 10:07:35;;;;;;;4.25;2.55;;;;;;;12.42;68.58;102038.41;5010456;28;20038;-42
2021/10/07 10:10:05;;;;;;;2.42;2.10;;;;;;;12.42;68.91;102042.78;5013601;28;20474;-42
2021/10/07 10:12:30;;;;;;;2.67;2.42;;;;;;;12.41;68.78;102041.88;5013567;28;20467;-42
2021/10/07 10:14:55;;;;;;;2.60;2.40;;;;;;;12.41;68.50;102046.31;5012360;28;20048;-42
2021/10/07 10:17:21;;;;;;;3.55;2.70;;;;;;;12.41;68.95;102044.53;5012664;28;20021;-42
2021/10/07 10:19:51;;;;;;;2.97;2.63;;;;;;;12.42;68.69;102037.50;5013004;28;20048;-42
2021/10/07 10:22:16;;;;;;;2.75;2.35;;;;;;;12.41;68.83;102049.81;5012479;28;20033;-42
2021/10/07 10:24:45;;;;;;;2.58;2.38;;;;;;;12.40;68.94;102048.06;5012159;28;20017;-42
2021/10/07 10:27:11;;;;;;;2.63;2.15;;;;;;;12.40;69.03;102045.41;5012432;28;20108;-42
2021/10/07 10:29:36;;;;;;;2.10;1.92;;;;;;;12.41;68.95;102041.88;5012030;28;20028;-42
2021/10/07 10:32:03;;;;;;;2.47;2.28;;;;;;;12.40;68.58;102044.53;5012629;28;20018;-42
2021/10/07 10:34:37;;;;;;;2.83;2.35;;;;;;;12.41;69.05;102044.53;5012892;28;20038;-41
2021/10/07 10:37:04;;;;;;;2.30;2.10;;;;;;;12.40;68.72;102045.41;5013418;28;20045;-42
2021/10/07 10:39:38;;;;;;;2.58;2.38;;;;;;;12.41;68.76;102048.97;4993342;28;20022;-42
2021/10/07 10:42:15;;;;;;;3.33;2.70;;;;;;;12.40;68.84;102049.81;5009939;28;20085;-42
2021/10/07 10:44:46;;;;;;;2.70;2.50;;;;;;;12.39;69.04;102059.53;5013145;28;20025;-41
2021/10/07 10:47:11;;;;;;;2.83;2.47;;;;;;;12.40;68.79;102056.00;5013366;28;20434;-42
2021/10/07 10:49:38;;;;;;;3.30;2.30;;;;;;;12.40;69.11;102063.94;5012727;28;20022;-42
2021/10/07 10:52:24;;;;;;;2.65;2.38;;;;;;;12.40;68.83;102061.31;5011340;28;20172;-42
2021/10/07 10:54:55;;;;;;;2.13;1.92;;;;;;;12.41;69.00;102070.13;5012222;28;20092;-42
2021/10/07 10:57:26;;;;;;;2.38;2.17;;;;;;;12.39;69.02;102070.13;5011818;28;20061;-41
2021/10/07 11:00:16;;;;;;;2.53;2.33;;;;;;;12.41;69.16;102073.66;5012659;28;20029;-42
2021/10/07 11:02:45;;;;;;;2.40;2.20;;;;;;;12.39;68.96;102070.13;5003450;28;20038;-42
2021/10/07 11:05:12;;;;;;;2.80;2.45;;;;;;;12.40;68.77;102077.19;5010225;28;20408;-42
2021/10/07 11:07:38;;;;;;;2.92;2.72;;;;;;;12.39;69.16;102083.34;5012479;28;20072;-42
2021/10/07 11:10:07;;;;;;;3.22;1.98;;;;;;;12.39;69.16;102080.72;5011468;28;20109;-42
2021/10/07 11:12:48;;;;;;;2.17;1.98;;;;;;;12.39;69.00;102088.63;5012586;28;20391;-42
2021/10/07 11:15:14;;;;;;;2.15;1.70;;;;;;;12.38;69.17;102084.22;5012717;28;20045;-42
2021/10/07 11:17:43;;;;;;;2.30;2.10;;;;;;;12.40;68.95;102081.56;5011089;28;20541;-42
2021/10/07 11:20:14;;;;;;;2.17;1.98;;;;;;;12.39;69.14;102083.34;5012024;28;20032;-41
2021/10/07 11:22:44;;;;;;;2.47;2.28;;;;;;;12.39;69.42;102085.09;5012329;28;20384;-41
2021/10/07 11:25:10;;;;;;;2.37;2.17;;;;;;;12.39;69.09;102075.41;5011204;28;20030;-42